createdAt,value
2022-08-28T00:04:47.710Z,22.4
2022-08-28T00:09:50.488Z,22.3
2022-08-28T00:14:52.864Z,22.3
2022-08-28T00:19:55.479Z,22.4
2022-08-28T00:24:58.997Z,22.4
2022-08-28T00:30:01.380Z,22.3
2022-08-28T00:35:03.955Z,22.2
2022-08-28T00:40:08.347Z,22.2
2022-08-28T00:45:11.154Z,22.2
2022-08-28T00:50:13.591Z,22.1
2022-08-28T00:55:16.196Z,22
2022-08-28T01:00:18.474Z,22
2022-08-28T01:05:21.233Z,21.5
2022-08-28T01:15:24.725Z,21.4
2022-08-28T01:20:27.425Z,21
2022-08-28T01:25:29.914Z,21
2022-08-28T01:30:32.693Z,20.8
2022-08-28T01:35:35.116Z,20.7
2022-08-28T01:40:37.965Z,20.8
2022-08-28T01:45:40.440Z,20.7
2022-08-28T01:50:43.670Z,20.2
2022-08-28T01:55:46.117Z,20.1
2022-08-28T02:00:48.842Z,20.2
2022-08-28T02:05:51.458Z,20.3
2022-08-28T02:10:53.920Z,20.3
2022-08-28T02:15:56.515Z,20.1
2022-08-28T02:20:59.222Z,20.1
2022-08-28T02:26:01.709Z,20.1
2022-08-28T02:31:04.372Z,20.4
2022-08-28T02:36:07.099Z,20.4
2022-08-28T02:41:09.621Z,20.3
2022-08-28T02:46:12.257Z,20.3
2022-08-28T02:51:14.694Z,20.3
2022-08-28T02:56:16.958Z,20.4
2022-08-28T03:01:19.893Z,20.5
2022-08-28T03:06:22.307Z,20.4
2022-08-28T03:11:24.644Z,20.6
2022-08-28T03:16:27.340Z,20.6
2022-08-28T03:21:30.170Z,20.7
2022-08-28T03:26:32.703Z,20.7
2022-08-28T03:31:36.999Z,20.6
2022-08-28T03:36:39.780Z,20.7
2022-08-28T03:41:42.217Z,20.7
2022-08-28T03:46:44.958Z,20.5
2022-08-28T03:51:49.039Z,20.5
2022-08-28T03:56:51.343Z,20.5
2022-08-28T04:01:54.238Z,20.6
2022-08-28T04:06:57.907Z,20.5
2022-08-28T04:12:00.283Z,20.7
2022-08-28T04:17:03.827Z,20.8
2022-08-28T04:22:06.211Z,20.8
2022-08-28T04:27:09.795Z,20.8
2022-08-28T04:32:12.574Z,20.9
2022-08-28T04:37:15.258Z,20.9
2022-08-28T04:42:17.640Z,21
2022-08-28T04:47:19.921Z,21
2022-08-28T04:52:22.224Z,21.4
2022-08-28T04:57:24.991Z,22
2022-08-28T05:02:27.900Z,22.1
2022-08-28T05:07:30.246Z,22.1
2022-08-28T05:12:32.621Z,22.5
2022-08-28T05:17:35.211Z,23.1
2022-08-28T05:22:37.835Z,23.6
2022-08-28T05:27:40.397Z,23.9
2022-08-28T05:32:42.676Z,24.1
2022-08-28T05:37:45.042Z,24.4
2022-08-28T05:42:47.386Z,24.9
2022-08-28T05:47:50.067Z,25.6
2022-08-28T05:52:52.281Z,25.6
2022-08-28T05:57:54.903Z,26.4
2022-08-28T06:02:57.177Z,26.3
2022-08-28T06:07:59.436Z,26.8
2022-08-28T06:13:01.712Z,27.2
2022-08-28T06:18:05.596Z,27.4
2022-08-28T06:23:08.044Z,27.7
2022-08-28T06:28:11.287Z,28.4
2022-08-28T06:33:13.692Z,28.3
2022-08-28T06:38:16.580Z,29.1
2022-08-28T06:43:18.875Z,29.1
2022-08-28T06:48:21.220Z,29.4
2022-08-28T06:53:23.464Z,29.8
2022-08-28T06:58:26.115Z,30.6
2022-08-28T07:03:28.569Z,30.6
2022-08-28T07:08:31.271Z,32.3
2022-08-28T07:13:36.015Z,31.9
2022-08-28T07:18:38.288Z,31.9
2022-08-28T07:23:40.770Z,32.4
2022-08-28T07:28:43.143Z,32.2
2022-08-28T07:33:53.538Z,31.2
2022-08-28T07:38:56.571Z,31.1
2022-08-28T07:43:59.302Z,32.2
2022-08-28T07:49:01.627Z,32.2
2022-08-28T07:54:04.120Z,32.2
2022-08-28T07:59:08.455Z,33.5
2022-08-28T08:04:11.998Z,33.4
2022-08-28T08:09:14.310Z,33.2
2022-08-28T08:14:16.632Z,34
2022-08-28T08:19:19.308Z,34.8
2022-08-28T08:24:22.276Z,36.7
2022-08-28T08:29:24.544Z,36.6
2022-08-28T08:34:27.000Z,37.3
2022-08-28T08:39:32.859Z,35.4
2022-08-28T08:44:36.448Z,35
2022-08-28T08:49:39.328Z,35.5
2022-08-28T08:54:41.938Z,36
2022-08-28T08:59:44.528Z,36.4
2022-08-28T09:04:47.278Z,37.3
2022-08-28T09:09:49.648Z,37.3
2022-08-28T09:14:51.919Z,36.7
2022-08-28T09:19:54.639Z,36.4
2022-08-28T09:24:57.392Z,35.5
2022-08-28T09:30:09.281Z,38.5
2022-08-28T09:35:01.926Z,41.6
2022-08-28T09:40:05.059Z,39.3
2022-08-28T09:45:11.383Z,40.6
2022-08-28T09:50:15.255Z,40.7
2022-08-28T09:55:17.573Z,40.6
2022-08-28T10:00:20.178Z,38
2022-08-28T10:05:32.354Z,36.7
2022-08-28T10:10:24.726Z,36.8
2022-08-28T10:15:27.277Z,39.4
2022-08-28T10:20:29.578Z,39.4
2022-08-28T10:25:32.593Z,44.4
2022-08-28T10:30:35.546Z,44.2
2022-08-28T10:35:37.901Z,44.2
2022-08-28T10:40:41.221Z,43.9
2022-08-28T10:45:43.873Z,42
2022-08-28T10:50:46.639Z,42.2
2022-08-28T10:55:49.390Z,45
2022-08-28T11:00:52.571Z,44.6
2022-08-28T11:05:55.893Z,43.6
2022-08-28T11:10:58.538Z,43.4
2022-08-28T11:16:05.911Z,42.8
2022-08-28T11:21:08.463Z,40.8
2022-08-28T11:26:13.199Z,39.6
2022-08-28T11:31:31.144Z,40.7
2022-08-28T11:36:23.528Z,40.8
2022-08-28T11:41:26.280Z,41.4
2022-08-28T11:46:29.162Z,41
2022-08-28T11:51:31.876Z,41.3
2022-08-28T11:56:36.640Z,40.5
2022-08-28T12:01:39.267Z,40.4
2022-08-28T12:06:41.662Z,39.7
2022-08-28T12:11:46.447Z,39.4
2022-08-28T12:16:49.043Z,39
2022-08-28T12:21:51.334Z,38.9
2022-08-28T12:26:53.540Z,39.5
2022-08-28T12:32:01.062Z,37.3
2022-08-28T12:37:03.319Z,37.3
2022-08-28T12:42:06.251Z,37.6
2022-08-28T12:47:08.596Z,37.5
2022-08-28T12:52:17.735Z,37.1
2022-08-28T12:57:20.309Z,36.6
2022-08-28T13:02:23.414Z,36
2022-08-28T13:07:25.926Z,36
2022-08-28T13:13:04.772Z,36
2022-08-28T13:17:37.913Z,35.9
2022-08-28T13:22:40.750Z,36.3
2022-08-28T13:27:42.579Z,36.3
2022-08-28T13:32:45.284Z,35.2
2022-08-28T13:37:47.610Z,35.1
2022-08-28T13:42:50.397Z,35.1
2022-08-28T13:47:52.847Z,35
2022-08-28T13:53:00.236Z,34.6
2022-08-28T13:58:02.774Z,34.1
2022-08-28T14:03:05.607Z,33.7
2022-08-28T14:08:08.152Z,33.7
2022-08-28T14:13:11.322Z,34.2
2022-08-28T14:18:13.845Z,34.2
2022-08-28T14:23:16.799Z,33.1
2022-08-28T14:28:19.191Z,33.1
2022-08-28T14:33:24.118Z,33.4
2022-08-28T14:38:27.255Z,33.3
2022-08-28T14:43:29.776Z,33.3
2022-08-28T14:48:32.305Z,33.1
2022-08-28T14:53:34.866Z,33.4
2022-08-28T14:58:37.523Z,33.4
2022-08-28T15:03:40.353Z,33.4
2022-08-28T15:08:43.133Z,33.4
2022-08-28T15:13:46.921Z,33.4
2022-08-28T15:18:49.163Z,33
2022-08-28T15:23:51.910Z,32.7
2022-08-28T15:28:54.403Z,32.7
2022-08-28T15:33:56.701Z,32.7
2022-08-28T15:39:00.270Z,32.5
2022-08-28T15:44:02.929Z,32.4
2022-08-28T15:49:09.336Z,30.5
2022-08-28T15:54:12.481Z,30.4
2022-08-28T15:59:14.845Z,30.4
2022-08-28T16:04:17.175Z,30
2022-08-28T16:09:19.853Z,30.2
2022-08-28T16:14:23.128Z,30.2
2022-08-28T16:19:25.386Z,30.2
2022-08-28T16:24:28.073Z,29.9
2022-08-28T16:29:30.961Z,29.7
2022-08-28T16:34:34.086Z,29.5
2022-08-28T16:39:38.799Z,29.5
2022-08-28T16:44:41.351Z,29.3
2022-08-28T16:49:43.620Z,29.1
2022-08-28T16:54:50.572Z,28.8
2022-08-28T16:59:56.252Z,28.6
2022-08-28T17:04:59.019Z,28.6
2022-08-28T17:10:01.592Z,28.5
2022-08-28T17:15:04.260Z,28.1
2022-08-28T17:20:06.623Z,28.1
2022-08-28T17:25:09.537Z,27.7
2022-08-28T17:30:12.088Z,27.6
2022-08-28T17:35:14.437Z,27.4
2022-08-28T17:40:17.334Z,27.1
2022-08-28T17:45:20.290Z,27
2022-08-28T17:50:22.826Z,26.9
2022-08-28T17:55:25.121Z,26.8
2022-08-28T18:00:27.450Z,26.6
2022-08-28T18:05:30.032Z,26.4
2022-08-28T18:10:32.607Z,26.3
2022-08-28T18:15:38.859Z,26.2
2022-08-28T18:20:44.844Z,26.2
2022-08-28T18:25:52.971Z,25.9
2022-08-28T18:30:55.764Z,25.7
2022-08-28T18:35:58.383Z,25.7
2022-08-28T18:41:00.613Z,25.7
2022-08-28T18:46:03.470Z,25.8
2022-08-28T18:51:06.058Z,25.8
2022-08-28T18:56:12.379Z,25.6
2022-08-28T19:01:15.180Z,25.6
2022-08-28T19:06:17.723Z,25.6
2022-08-28T19:11:20.219Z,25.6
2022-08-28T19:16:23.316Z,25.6
2022-08-28T19:21:26.183Z,25.7
2022-08-28T19:26:28.492Z,25.7
2022-08-28T19:31:31.524Z,25.8
2022-08-28T19:36:34.961Z,25.7
2022-08-28T19:41:37.658Z,25.7
2022-08-28T19:46:40.469Z,25.7
2022-08-28T19:51:43.211Z,25.6
2022-08-28T19:56:45.538Z,25.6
2022-08-28T20:01:49.954Z,25.6
2022-08-28T20:06:52.991Z,25.6
2022-08-28T20:11:55.348Z,25.5
2022-08-28T20:16:57.873Z,25.5
2022-08-28T20:22:00.650Z,25.5
2022-08-28T20:27:03.258Z,25.5
2022-08-28T20:32:05.775Z,25.5
2022-08-28T20:37:08.555Z,25.4
2022-08-28T20:42:11.100Z,25.3
2022-08-28T20:47:14.554Z,25.2
2022-08-28T20:52:17.123Z,25.1
2022-08-28T20:57:19.448Z,25.2
2022-08-28T21:02:22.041Z,25
2022-08-28T21:07:24.301Z,25
2022-08-28T21:12:26.931Z,24.8
2022-08-28T21:17:32.306Z,24.8
2022-08-28T21:22:37.331Z,24.5
2022-08-28T21:27:40.504Z,24.5
2022-08-28T21:32:43.553Z,24.3
2022-08-28T21:37:46.466Z,24.3
2022-08-28T21:42:48.794Z,24.3
2022-08-28T21:47:51.486Z,24.1
2022-08-28T21:52:53.698Z,24
2022-08-28T21:57:56.357Z,24.1
2022-08-28T22:02:59.520Z,23.9
2022-08-28T22:08:02.313Z,23.8
2022-08-28T22:13:04.766Z,23.8
2022-08-28T22:18:08.033Z,23.7
2022-08-28T22:23:11.037Z,23.6
2022-08-28T22:28:14.383Z,23.5
2022-08-28T22:33:17.361Z,23.4
2022-08-28T22:38:19.927Z,23.4
2022-08-28T22:43:22.725Z,23.2
2022-08-28T22:48:25.549Z,23.1
2022-08-28T22:53:28.499Z,23
2022-08-28T22:58:30.730Z,23
2022-08-28T23:03:33.989Z,22.9
2022-08-28T23:08:36.737Z,22.9
2022-08-28T23:13:39.488Z,22.7
2022-08-28T23:19:14.206Z,22.6
2022-08-28T23:23:46.907Z,22.6
2022-08-28T23:28:49.178Z,22.5
2022-08-28T23:33:52.678Z,22.3
2022-08-28T23:38:58.285Z,22.2
2022-08-28T23:44:09.817Z,22.1
2022-08-28T23:49:12.502Z,21.9
2022-08-28T23:54:20.145Z,21.8
2022-08-28T23:59:25.146Z,21.9
